sensor_id;sensor_type;location;lat;lon;timestamp;P1;durP1;ratioP1;P2;durP2;ratioP2
54665;SDS011;40566;50.006;36.180;2023-11-19T00:01:07;3.03;;;1.77;;
54665;SDS011;40566;50.006;36.180;2023-11-19T00:06:08;3.03;;;1.67;;
54665;SDS011;40566;50.006;36.180;2023-11-19T00:11:10;0.93;;;0.68;;
54665;SDS011;40566;50.006;36.180;2023-11-19T00:16:11;4.47;;;1.75;;
54665;SDS011;40566;50.006;36.180;2023-11-19T00:21:12;2.05;;;1.25;;
54665;SDS011;40566;50.006;36.180;2023-11-19T00:26:12;2.88;;;1.35;;
54665;SDS011;40566;50.006;36.180;2023-11-19T00:31:15;3.50;;;1.42;;
54665;SDS011;40566;50.006;36.180;2023-11-19T00:36:15;2.78;;;1.42;;
54665;SDS011;40566;50.006;36.180;2023-11-19T00:41:16;3.20;;;1.63;;
54665;SDS011;40566;50.006;36.180;2023-11-19T00:46:19;3.45;;;1.98;;
54665;SDS011;40566;50.006;36.180;2023-11-19T00:51:20;3.63;;;1.30;;
54665;SDS011;40566;50.006;36.180;2023-11-19T00:56:20;4.22;;;2.20;;
54665;SDS011;40566;50.006;36.180;2023-11-19T01:01:21;5.82;;;2.08;;
54665;SDS011;40566;50.006;36.180;2023-11-19T01:06:31;2.90;;;1.17;;
54665;SDS011;40566;50.006;36.180;2023-11-19T01:11:32;2.05;;;1.27;;
54665;SDS011;40566;50.006;36.180;2023-11-19T01:16:33;1.85;;;1.02;;
54665;SDS011;40566;50.006;36.180;2023-11-19T01:21:33;2.88;;;1.58;;
54665;SDS011;40566;50.006;36.180;2023-11-19T01:26:34;1.52;;;0.98;;
54665;SDS011;40566;50.006;36.180;2023-11-19T01:31:35;5.40;;;1.95;;
54665;SDS011;40566;50.006;36.180;2023-11-19T01:36:35;4.43;;;2.30;;
54665;SDS011;40566;50.006;36.180;2023-11-19T01:41:36;3.15;;;1.02;;
54665;SDS011;40566;50.006;36.180;2023-11-19T01:46:40;2.58;;;0.85;;
54665;SDS011;40566;50.006;36.180;2023-11-19T01:51:42;2.47;;;1.30;;
54665;SDS011;40566;50.006;36.180;2023-11-19T01:56:43;3.40;;;1.67;;
54665;SDS011;40566;50.006;36.180;2023-11-19T02:01:44;4.65;;;1.88;;
54665;SDS011;40566;50.006;36.180;2023-11-19T02:06:44;2.13;;;1.15;;
54665;SDS011;40566;50.006;36.180;2023-11-19T02:11:45;2.65;;;0.95;;
54665;SDS011;40566;50.006;36.180;2023-11-19T02:16:51;1.48;;;0.80;;
54665;SDS011;40566;50.006;36.180;2023-11-19T02:21:52;3.88;;;1.55;;
54665;SDS011;40566;50.006;36.180;2023-11-19T02:27:02;2.78;;;1.83;;
54665;SDS011;40566;50.006;36.180;2023-11-19T02:32:06;3.30;;;1.58;;
54665;SDS011;40566;50.006;36.180;2023-11-19T02:37:09;2.90;;;2.00;;
54665;SDS011;40566;50.006;36.180;2023-11-19T02:42:10;2.40;;;1.20;;
54665;SDS011;40566;50.006;36.180;2023-11-19T02:47:11;3.70;;;1.75;;
54665;SDS011;40566;50.006;36.180;2023-11-19T02:52:12;2.15;;;1.92;;
54665;SDS011;40566;50.006;36.180;2023-11-19T02:57:12;3.80;;;1.50;;
54665;SDS011;40566;50.006;36.180;2023-11-19T03:02:13;1.67;;;1.05;;
54665;SDS011;40566;50.006;36.180;2023-11-19T03:07:16;4.50;;;1.48;;
54665;SDS011;40566;50.006;36.180;2023-11-19T03:12:17;2.70;;;1.65;;
54665;SDS011;40566;50.006;36.180;2023-11-19T03:17:18;1.17;;;0.68;;
54665;SDS011;40566;50.006;36.180;2023-11-19T03:22:19;3.30;;;1.33;;
54665;SDS011;40566;50.006;36.180;2023-11-19T03:27:21;2.15;;;1.05;;
54665;SDS011;40566;50.006;36.180;2023-11-19T03:32:21;2.70;;;1.10;;
54665;SDS011;40566;50.006;36.180;2023-11-19T03:37:22;3.38;;;1.25;;
54665;SDS011;40566;50.006;36.180;2023-11-19T03:42:22;2.45;;;1.38;;
54665;SDS011;40566;50.006;36.180;2023-11-19T03:47:23;3.53;;;1.30;;
54665;SDS011;40566;50.006;36.180;2023-11-19T03:52:24;1.85;;;1.23;;
54665;SDS011;40566;50.006;36.180;2023-11-19T03:57:24;3.13;;;1.33;;
54665;SDS011;40566;50.006;36.180;2023-11-19T04:02:25;1.80;;;1.15;;
54665;SDS011;40566;50.006;36.180;2023-11-19T04:07:28;3.13;;;1.20;;
54665;SDS011;40566;50.006;36.180;2023-11-19T04:12:29;2.90;;;1.65;;
54665;SDS011;40566;50.006;36.180;2023-11-19T04:17:29;3.22;;;1.52;;
54665;SDS011;40566;50.006;36.180;2023-11-19T04:22:30;4.80;;;1.95;;
54665;SDS011;40566;50.006;36.180;2023-11-19T04:27:31;2.58;;;1.25;;
54665;SDS011;40566;50.006;36.180;2023-11-19T04:32:31;2.08;;;1.58;;
54665;SDS011;40566;50.006;36.180;2023-11-19T04:37:32;5.10;;;1.38;;
54665;SDS011;40566;50.006;36.180;2023-11-19T04:42:32;1.90;;;1.05;;
54665;SDS011;40566;50.006;36.180;2023-11-19T04:47:33;2.47;;;1.25;;
54665;SDS011;40566;50.006;36.180;2023-11-19T04:52:34;1.52;;;1.17;;
54665;SDS011;40566;50.006;36.180;2023-11-19T04:57:38;6.25;;;1.35;;
54665;SDS011;40566;50.006;36.180;2023-11-19T05:02:40;2.50;;;1.33;;
54665;SDS011;40566;50.006;36.180;2023-11-19T05:07:40;4.32;;;1.55;;
54665;SDS011;40566;50.006;36.180;2023-11-19T05:12:41;3.53;;;1.13;;
54665;SDS011;40566;50.006;36.180;2023-11-19T05:17:41;3.30;;;1.70;;
54665;SDS011;40566;50.006;36.180;2023-11-19T05:22:42;8.77;;;1.58;;
54665;SDS011;40566;50.006;36.180;2023-11-19T05:27:43;4.05;;;1.33;;
54665;SDS011;40566;50.006;36.180;2023-11-19T05:32:43;4.13;;;1.75;;
54665;SDS011;40566;50.006;36.180;2023-11-19T05:37:44;4.60;;;1.85;;
54665;SDS011;40566;50.006;36.180;2023-11-19T05:42:45;3.58;;;1.65;;
54665;SDS011;40566;50.006;36.180;2023-11-19T05:47:45;2.25;;;1.02;;
54665;SDS011;40566;50.006;36.180;2023-11-19T05:52:46;7.13;;;2.40;;
54665;SDS011;40566;50.006;36.180;2023-11-19T05:57:47;3.65;;;1.40;;
54665;SDS011;40566;50.006;36.180;2023-11-19T06:02:47;4.65;;;2.22;;
54665;SDS011;40566;50.006;36.180;2023-11-19T06:07:48;6.80;;;2.22;;
54665;SDS011;40566;50.006;36.180;2023-11-19T06:12:48;4.68;;;2.05;;
54665;SDS011;40566;50.006;36.180;2023-11-19T06:17:56;6.90;;;2.60;;
54665;SDS011;40566;50.006;36.180;2023-11-19T06:22:59;8.75;;;1.83;;
54665;SDS011;40566;50.006;36.180;2023-11-19T06:28:00;7.53;;;2.97;;
54665;SDS011;40566;50.006;36.180;2023-11-19T06:33:01;7.93;;;1.73;;
54665;SDS011;40566;50.006;36.180;2023-11-19T06:38:02;5.85;;;2.35;;
54665;SDS011;40566;50.006;36.180;2023-11-19T06:43:04;11.18;;;2.05;;
54665;SDS011;40566;50.006;36.180;2023-11-19T06:48:05;5.63;;;2.30;;
54665;SDS011;40566;50.006;36.180;2023-11-19T06:53:05;4.55;;;1.17;;
54665;SDS011;40566;50.006;36.180;2023-11-19T06:58:10;4.40;;;2.38;;
54665;SDS011;40566;50.006;36.180;2023-11-19T07:03:12;6.53;;;2.22;;
54665;SDS011;40566;50.006;36.180;2023-11-19T07:08:13;4.93;;;1.92;;
54665;SDS011;40566;50.006;36.180;2023-11-19T07:13:13;4.30;;;1.67;;
54665;SDS011;40566;50.006;36.180;2023-11-19T07:18:14;11.52;;;2.00;;
54665;SDS011;40566;50.006;36.180;2023-11-19T07:23:15;8.02;;;2.45;;
54665;SDS011;40566;50.006;36.180;2023-11-19T07:28:16;4.22;;;1.75;;
54665;SDS011;40566;50.006;36.180;2023-11-19T07:33:17;4.80;;;1.95;;
54665;SDS011;40566;50.006;36.180;2023-11-19T07:38:18;6.95;;;3.33;;
54665;SDS011;40566;50.006;36.180;2023-11-19T07:43:18;5.13;;;2.08;;
54665;SDS011;40566;50.006;36.180;2023-11-19T07:48:19;6.15;;;2.30;;
54665;SDS011;40566;50.006;36.180;2023-11-19T07:53:22;11.45;;;2.83;;
54665;SDS011;40566;50.006;36.180;2023-11-19T07:58:23;7.28;;;2.97;;
54665;SDS011;40566;50.006;36.180;2023-11-19T08:03:24;4.40;;;2.15;;
54665;SDS011;40566;50.006;36.180;2023-11-19T08:08:24;9.65;;;2.67;;
54665;SDS011;40566;50.006;36.180;2023-11-19T08:13:25;8.30;;;2.95;;
54665;SDS011;40566;50.006;36.180;2023-11-19T08:18:26;6.80;;;3.28;;
54665;SDS011;40566;50.006;36.180;2023-11-19T08:23:26;13.57;;;3.90;;
54665;SDS011;40566;50.006;36.180;2023-11-19T08:28:28;8.13;;;3.50;;
54665;SDS011;40566;50.006;36.180;2023-11-19T08:33:29;12.20;;;3.53;;
54665;SDS011;40566;50.006;36.180;2023-11-19T08:38:30;10.07;;;3.78;;
54665;SDS011;40566;50.006;36.180;2023-11-19T08:43:31;7.53;;;3.05;;
54665;SDS011;40566;50.006;36.180;2023-11-19T08:48:31;9.18;;;3.15;;
54665;SDS011;40566;50.006;36.180;2023-11-19T08:53:32;5.95;;;2.20;;
54665;SDS011;40566;50.006;36.180;2023-11-19T08:58:33;7.50;;;3.22;;
54665;SDS011;40566;50.006;36.180;2023-11-19T09:03:33;7.28;;;3.47;;
54665;SDS011;40566;50.006;36.180;2023-11-19T09:08:34;10.15;;;3.33;;
54665;SDS011;40566;50.006;36.180;2023-11-19T09:13:35;11.82;;;4.13;;
54665;SDS011;40566;50.006;36.180;2023-11-19T09:18:35;7.38;;;2.85;;
54665;SDS011;40566;50.006;36.180;2023-11-19T09:23:36;17.02;;;4.85;;
54665;SDS011;40566;50.006;36.180;2023-11-19T09:28:39;12.00;;;5.88;;
54665;SDS011;40566;50.006;36.180;2023-11-19T09:33:39;16.23;;;5.82;;
54665;SDS011;40566;50.006;36.180;2023-11-19T09:38:40;10.55;;;5.20;;
54665;SDS011;40566;50.006;36.180;2023-11-19T09:43:41;20.98;;;6.40;;
54665;SDS011;40566;50.006;36.180;2023-11-19T09:48:42;14.25;;;5.22;;
54665;SDS011;40566;50.006;36.180;2023-11-19T09:53:44;7.07;;;3.05;;
54665;SDS011;40566;50.006;36.180;2023-11-19T09:58:45;13.57;;;4.10;;
54665;SDS011;40566;50.006;36.180;2023-11-19T10:03:46;8.82;;;3.53;;
54665;SDS011;40566;50.006;36.180;2023-11-19T10:08:49;11.63;;;3.25;;
54665;SDS011;40566;50.006;36.180;2023-11-19T10:13:49;8.13;;;3.22;;
54665;SDS011;40566;50.006;36.180;2023-11-19T10:18:54;10.85;;;3.65;;
54665;SDS011;40566;50.006;36.180;2023-11-19T10:23:56;16.70;;;5.03;;
54665;SDS011;40566;50.006;36.180;2023-11-19T10:28:59;15.40;;;3.83;;
54665;SDS011;40566;50.006;36.180;2023-11-19T10:34:02;12.13;;;3.70;;
54665;SDS011;40566;50.006;36.180;2023-11-19T10:39:04;10.88;;;3.47;;
54665;SDS011;40566;50.006;36.180;2023-11-19T10:44:05;9.40;;;3.65;;
54665;SDS011;40566;50.006;36.180;2023-11-19T10:49:09;15.65;;;3.97;;
54665;SDS011;40566;50.006;36.180;2023-11-19T10:54:10;15.63;;;4.07;;
54665;SDS011;40566;50.006;36.180;2023-11-19T10:59:14;16.92;;;5.22;;
54665;SDS011;40566;50.006;36.180;2023-11-19T11:04:19;19.25;;;6.40;;
54665;SDS011;40566;50.006;36.180;2023-11-19T11:09:25;15.10;;;5.97;;
54665;SDS011;40566;50.006;36.180;2023-11-19T11:14:27;12.68;;;4.00;;
54665;SDS011;40566;50.006;36.180;2023-11-19T11:19:29;12.27;;;3.85;;
54665;SDS011;40566;50.006;36.180;2023-11-19T11:35:13;11.43;;;4.05;;
54665;SDS011;40566;50.006;36.180;2023-11-19T11:40:32;14.60;;;4.50;;
54665;SDS011;40566;50.006;36.180;2023-11-19T11:45:37;14.13;;;4.30;;
54665;SDS011;40566;50.006;36.180;2023-11-19T11:50:51;11.87;;;4.57;;
54665;SDS011;40566;50.006;36.180;2023-11-19T11:55:54;10.23;;;3.90;;
54665;SDS011;40566;50.006;36.180;2023-11-19T12:01:01;13.98;;;4.97;;
54665;SDS011;40566;50.006;36.180;2023-11-19T12:06:02;8.18;;;3.30;;
54665;SDS011;40566;50.006;36.180;2023-11-19T12:11:06;11.75;;;3.47;;
54665;SDS011;40566;50.006;36.180;2023-11-19T12:16:08;18.25;;;3.95;;
54665;SDS011;40566;50.006;36.180;2023-11-19T12:21:09;14.45;;;6.00;;
54665;SDS011;40566;50.006;36.180;2023-11-19T12:26:20;16.55;;;5.15;;
54665;SDS011;40566;50.006;36.180;2023-11-19T12:31:32;9.48;;;2.97;;
54665;SDS011;40566;50.006;36.180;2023-11-19T12:36:32;8.02;;;2.97;;
54665;SDS011;40566;50.006;36.180;2023-11-19T12:41:48;6.88;;;1.83;;
54665;SDS011;40566;50.006;36.180;2023-11-19T12:46:59;11.45;;;3.75;;
54665;SDS011;40566;50.006;36.180;2023-11-19T12:52:01;9.27;;;3.25;;
54665;SDS011;40566;50.006;36.180;2023-11-19T12:57:02;7.53;;;2.55;;
54665;SDS011;40566;50.006;36.180;2023-11-19T13:02:05;10.88;;;3.83;;
54665;SDS011;40566;50.006;36.180;2023-11-19T13:07:07;14.10;;;3.65;;
54665;SDS011;40566;50.006;36.180;2023-11-19T13:12:14;10.52;;;3.70;;
54665;SDS011;40566;50.006;36.180;2023-11-19T13:17:15;13.70;;;3.03;;
54665;SDS011;40566;50.006;36.180;2023-11-19T13:22:16;7.25;;;2.83;;
54665;SDS011;40566;50.006;36.180;2023-11-19T13:27:17;7.68;;;2.85;;
54665;SDS011;40566;50.006;36.180;2023-11-19T13:32:17;6.85;;;2.95;;
54665;SDS011;40566;50.006;36.180;2023-11-19T13:37:18;11.55;;;4.45;;
54665;SDS011;40566;50.006;36.180;2023-11-19T13:42:18;10.35;;;4.25;;
54665;SDS011;40566;50.006;36.180;2023-11-19T13:47:20;8.70;;;3.10;;
54665;SDS011;40566;50.006;36.180;2023-11-19T13:52:21;9.88;;;3.95;;
54665;SDS011;40566;50.006;36.180;2023-11-19T13:57:21;11.32;;;4.22;;
54665;SDS011;40566;50.006;36.180;2023-11-19T14:02:22;9.23;;;3.47;;
54665;SDS011;40566;50.006;36.180;2023-11-19T14:07:22;7.72;;;3.38;;
54665;SDS011;40566;50.006;36.180;2023-11-19T14:12:23;11.48;;;3.55;;
54665;SDS011;40566;50.006;36.180;2023-11-19T14:17:23;7.57;;;3.28;;
54665;SDS011;40566;50.006;36.180;2023-11-19T14:22:27;9.07;;;3.70;;
54665;SDS011;40566;50.006;36.180;2023-11-19T14:27:27;14.38;;;5.28;;
54665;SDS011;40566;50.006;36.180;2023-11-19T14:32:28;15.95;;;5.28;;
54665;SDS011;40566;50.006;36.180;2023-11-19T14:37:32;13.45;;;5.25;;
54665;SDS011;40566;50.006;36.180;2023-11-19T14:42:32;14.02;;;4.75;;
54665;SDS011;40566;50.006;36.180;2023-11-19T14:47:33;12.90;;;4.13;;
54665;SDS011;40566;50.006;36.180;2023-11-19T14:52:34;10.20;;;3.80;;
54665;SDS011;40566;50.006;36.180;2023-11-19T14:57:36;11.38;;;5.25;;
54665;SDS011;40566;50.006;36.180;2023-11-19T15:02:40;10.75;;;3.42;;
54665;SDS011;40566;50.006;36.180;2023-11-19T15:07:43;10.73;;;3.47;;
54665;SDS011;40566;50.006;36.180;2023-11-19T15:12:44;10.50;;;3.30;;
54665;SDS011;40566;50.006;36.180;2023-11-19T15:17:45;9.35;;;2.97;;
54665;SDS011;40566;50.006;36.180;2023-11-19T15:22:46;8.82;;;3.55;;
54665;SDS011;40566;50.006;36.180;2023-11-19T15:27:47;10.18;;;3.63;;
54665;SDS011;40566;50.006;36.180;2023-11-19T15:32:48;8.15;;;2.63;;
54665;SDS011;40566;50.006;36.180;2023-11-19T15:37:50;6.15;;;2.67;;
54665;SDS011;40566;50.006;36.180;2023-11-19T15:42:50;9.45;;;3.72;;
54665;SDS011;40566;50.006;36.180;2023-11-19T15:47:53;9.48;;;3.35;;
54665;SDS011;40566;50.006;36.180;2023-11-19T15:52:53;7.07;;;2.83;;
54665;SDS011;40566;50.006;36.180;2023-11-19T15:57:54;10.18;;;2.95;;
54665;SDS011;40566;50.006;36.180;2023-11-19T16:02:55;9.88;;;2.83;;
54665;SDS011;40566;50.006;36.180;2023-11-19T16:07:56;11.20;;;3.17;;
54665;SDS011;40566;50.006;36.180;2023-11-19T16:12:57;10.55;;;3.33;;
54665;SDS011;40566;50.006;36.180;2023-11-19T16:17:57;8.90;;;3.35;;
54665;SDS011;40566;50.006;36.180;2023-11-19T16:22:58;6.88;;;2.10;;
54665;SDS011;40566;50.006;36.180;2023-11-19T16:28:00;6.57;;;2.88;;
54665;SDS011;40566;50.006;36.180;2023-11-19T16:33:01;5.15;;;2.17;;
54665;SDS011;40566;50.006;36.180;2023-11-19T16:38:03;5.38;;;2.22;;
54665;SDS011;40566;50.006;36.180;2023-11-19T16:43:04;6.35;;;2.63;;
54665;SDS011;40566;50.006;36.180;2023-11-19T16:48:06;4.65;;;2.03;;
54665;SDS011;40566;50.006;36.180;2023-11-19T16:53:06;6.43;;;2.47;;
54665;SDS011;40566;50.006;36.180;2023-11-19T16:58:07;14.07;;;2.85;;
54665;SDS011;40566;50.006;36.180;2023-11-19T17:03:10;6.65;;;2.03;;
54665;SDS011;40566;50.006;36.180;2023-11-19T17:08:10;7.40;;;2.78;;
54665;SDS011;40566;50.006;36.180;2023-11-19T17:13:11;8.45;;;3.15;;
54665;SDS011;40566;50.006;36.180;2023-11-19T17:18:12;9.02;;;2.75;;
54665;SDS011;40566;50.006;36.180;2023-11-19T17:23:12;5.50;;;2.05;;
54665;SDS011;40566;50.006;36.180;2023-11-19T17:28:13;7.15;;;2.38;;
54665;SDS011;40566;50.006;36.180;2023-11-19T17:33:15;5.05;;;2.17;;
54665;SDS011;40566;50.006;36.180;2023-11-19T17:38:16;12.00;;;4.03;;
54665;SDS011;40566;50.006;36.180;2023-11-19T17:43:17;5.32;;;2.13;;
54665;SDS011;40566;50.006;36.180;2023-11-19T17:48:19;9.30;;;2.17;;
54665;SDS011;40566;50.006;36.180;2023-11-19T17:53:21;6.75;;;2.40;;
54665;SDS011;40566;50.006;36.180;2023-11-19T17:58:21;5.22;;;2.40;;
54665;SDS011;40566;50.006;36.180;2023-11-19T18:03:22;5.05;;;2.30;;
54665;SDS011;40566;50.006;36.180;2023-11-19T18:08:22;6.30;;;2.85;;
54665;SDS011;40566;50.006;36.180;2023-11-19T18:13:23;7.72;;;2.72;;
54665;SDS011;40566;50.006;36.180;2023-11-19T18:18:24;9.85;;;3.70;;
54665;SDS011;40566;50.006;36.180;2023-11-19T18:23:25;5.82;;;2.35;;
54665;SDS011;40566;50.006;36.180;2023-11-19T18:28:26;10.20;;;3.00;;
54665;SDS011;40566;50.006;36.180;2023-11-19T18:33:28;6.35;;;2.50;;
54665;SDS011;40566;50.006;36.180;2023-11-19T18:38:29;5.25;;;2.33;;
54665;SDS011;40566;50.006;36.180;2023-11-19T18:43:30;5.30;;;2.40;;
54665;SDS011;40566;50.006;36.180;2023-11-19T18:48:30;7.13;;;2.45;;
54665;SDS011;40566;50.006;36.180;2023-11-19T18:53:31;6.30;;;2.58;;
54665;SDS011;40566;50.006;36.180;2023-11-19T18:58:33;7.40;;;3.85;;
54665;SDS011;40566;50.006;36.180;2023-11-19T19:03:33;6.45;;;2.60;;
54665;SDS011;40566;50.006;36.180;2023-11-19T19:08:35;6.63;;;2.30;;
54665;SDS011;40566;50.006;36.180;2023-11-19T19:13:39;6.93;;;2.92;;
54665;SDS011;40566;50.006;36.180;2023-11-19T19:18:40;6.03;;;2.25;;
54665;SDS011;40566;50.006;36.180;2023-11-19T19:23:41;5.45;;;1.95;;
54665;SDS011;40566;50.006;36.180;2023-11-19T19:28:41;7.07;;;2.83;;
54665;SDS011;40566;50.006;36.180;2023-11-19T19:33:42;14.90;;;3.50;;
54665;SDS011;40566;50.006;36.180;2023-11-19T19:38:43;5.97;;;2.67;;
54665;SDS011;40566;50.006;36.180;2023-11-19T19:43:45;8.68;;;3.30;;
54665;SDS011;40566;50.006;36.180;2023-11-19T19:48:46;8.38;;;2.63;;
54665;SDS011;40566;50.006;36.180;2023-11-19T19:53:47;18.48;;;3.28;;
54665;SDS011;40566;50.006;36.180;2023-11-19T19:58:49;4.65;;;1.98;;
54665;SDS011;40566;50.006;36.180;2023-11-19T20:03:49;5.05;;;2.20;;
54665;SDS011;40566;50.006;36.180;2023-11-19T20:08:50;4.88;;;2.45;;
54665;SDS011;40566;50.006;36.180;2023-11-19T20:13:52;7.63;;;2.60;;
54665;SDS011;40566;50.006;36.180;2023-11-19T20:18:53;7.63;;;2.78;;
54665;SDS011;40566;50.006;36.180;2023-11-19T20:23:54;5.35;;;2.53;;
54665;SDS011;40566;50.006;36.180;2023-11-19T20:28:55;3.92;;;2.00;;
54665;SDS011;40566;50.006;36.180;2023-11-19T20:33:55;9.88;;;3.05;;
54665;SDS011;40566;50.006;36.180;2023-11-19T20:38:56;9.75;;;2.50;;
54665;SDS011;40566;50.006;36.180;2023-11-19T20:43:56;7.90;;;3.83;;
54665;SDS011;40566;50.006;36.180;2023-11-19T20:48:57;7.45;;;3.58;;
54665;SDS011;40566;50.006;36.180;2023-11-19T20:53:58;6.60;;;2.72;;
54665;SDS011;40566;50.006;36.180;2023-11-19T20:58:59;5.30;;;2.15;;
54665;SDS011;40566;50.006;36.180;2023-11-19T21:04:00;9.15;;;2.92;;
54665;SDS011;40566;50.006;36.180;2023-11-19T21:09:01;7.88;;;2.63;;
54665;SDS011;40566;50.006;36.180;2023-11-19T21:14:03;12.80;;;3.58;;
54665;SDS011;40566;50.006;36.180;2023-11-19T21:19:03;15.60;;;4.38;;
54665;SDS011;40566;50.006;36.180;2023-11-19T21:24:04;2.00;;;1.05;;
54665;SDS011;40566;50.006;36.180;2023-11-19T21:29:05;4.07;;;1.75;;
54665;SDS011;40566;50.006;36.180;2023-11-19T21:34:05;7.28;;;2.55;;
54665;SDS011;40566;50.006;36.180;2023-11-19T21:39:06;9.98;;;3.55;;
54665;SDS011;40566;50.006;36.180;2023-11-19T21:44:09;4.47;;;1.67;;
54665;SDS011;40566;50.006;36.180;2023-11-19T21:49:10;2.65;;;1.20;;
54665;SDS011;40566;50.006;36.180;2023-11-19T21:54:10;3.38;;;1.30;;
54665;SDS011;40566;50.006;36.180;2023-11-19T21:59:11;3.33;;;2.00;;
54665;SDS011;40566;50.006;36.180;2023-11-19T22:04:12;2.92;;;1.23;;
54665;SDS011;40566;50.006;36.180;2023-11-19T22:09:13;4.47;;;1.38;;
54665;SDS011;40566;50.006;36.180;2023-11-19T22:14:15;2.63;;;1.00;;
54665;SDS011;40566;50.006;36.180;2023-11-19T22:19:16;4.20;;;1.15;;
54665;SDS011;40566;50.006;36.180;2023-11-19T22:24:16;4.13;;;1.58;;
54665;SDS011;40566;50.006;36.180;2023-11-19T22:29:17;3.25;;;1.40;;
54665;SDS011;40566;50.006;36.180;2023-11-19T22:34:18;3.38;;;1.50;;
54665;SDS011;40566;50.006;36.180;2023-11-19T22:39:18;3.45;;;1.60;;
54665;SDS011;40566;50.006;36.180;2023-11-19T22:44:19;4.07;;;1.60;;
54665;SDS011;40566;50.006;36.180;2023-11-19T22:49:19;6.47;;;1.92;;
54665;SDS011;40566;50.006;36.180;2023-11-19T22:54:20;2.85;;;1.15;;
54665;SDS011;40566;50.006;36.180;2023-11-19T22:59:21;3.97;;;1.17;;
54665;SDS011;40566;50.006;36.180;2023-11-19T23:04:21;3.80;;;1.13;;
54665;SDS011;40566;50.006;36.180;2023-11-19T23:09:23;4.75;;;1.70;;
54665;SDS011;40566;50.006;36.180;2023-11-19T23:14:23;8.15;;;1.45;;
54665;SDS011;40566;50.006;36.180;2023-11-19T23:19:24;4.22;;;1.58;;
54665;SDS011;40566;50.006;36.180;2023-11-19T23:24:24;1.38;;;0.98;;
54665;SDS011;40566;50.006;36.180;2023-11-19T23:29:26;2.58;;;1.35;;
54665;SDS011;40566;50.006;36.180;2023-11-19T23:34:26;5.63;;;1.13;;
54665;SDS011;40566;50.006;36.180;2023-11-19T23:39:42;2.78;;;1.30;;
54665;SDS011;40566;50.006;36.180;2023-11-19T23:44:43;2.63;;;1.20;;
54665;SDS011;40566;50.006;36.180;2023-11-19T23:49:43;1.52;;;0.90;;
54665;SDS011;40566;50.006;36.180;2023-11-19T23:54:44;1.67;;;0.95;;
54665;SDS011;40566;50.006;36.180;2023-11-19T23:59:44;2.88;;;1.17;;
